Time;durP1;ratioP1;P1;durP2;ratioP2;P2;SDS_P1;SDS_P2;PMS_P1;PMS_P2;Temp;Humidity;BMP_temperature;BMP_pressure;BME280_temperature;BME280_humidity;BME280_pressure;Samples;Min_cycle;Max_cycle;Signal;HPM_P1;HPM_P2
2022/08/26 00:01:09;;;;;;;;;;;;;;;25.61;48.20;100660.75;5076205;28;1981;-38
2022/08/26 00:03:36;;;;;;;;;;;;;;;25.64;48.21;100665.81;5075960;28;1290;-38
2022/08/26 00:06:02;;;;;;;;;;;;;;;25.65;48.70;100659.53;5076432;28;1092;-38
2022/08/26 00:08:29;;;;;;;;;;;;;;;25.64;48.54;100656.00;5075945;28;1205;-38
2022/08/26 00:10:55;;;;;;;;;;;;;;;25.67;49.21;100661.06;5076123;28;1043;-38
2022/08/26 00:13:25;;;;;;;;;;;;;;;25.60;49.99;100662.56;5075993;28;1209;-39
2022/08/26 00:15:52;;;;;;;;;;;;;;;25.60;49.56;100664.41;5074811;28;1261;-38
2022/08/26 00:18:19;;;;;;;;;;;;;;;25.64;49.93;100655.16;5075920;28;1617;-38
2022/08/26 00:20:48;;;;;;;;;;;;;;;25.61;50.15;100656.28;5075817;28;1905;-38
2022/08/26 00:23:16;;;;;;;;;;;;;;;25.60;49.91;100648.38;5075457;28;1215;-38
2022/08/26 00:25:43;;;;;;;;;;;;;;;25.57;50.76;100656.66;5074957;28;1128;-39
2022/08/26 00:28:09;;;;;;;;;;;;;;;25.57;51.21;100654.00;5075028;28;1213;-38
2022/08/26 00:30:37;;;;;;;;;;;;;;;25.53;51.17;100654.25;5074666;28;1020;-38
2022/08/26 00:33:04;;;;;;;;;;;;;;;25.59;50.42;100658.25;5075630;28;1309;-38
2022/08/26 00:35:33;;;;;;;;;;;;;;;25.53;51.51;100658.78;5071280;28;1222;-38
2022/08/26 00:38:01;;;;;;;;;;;;;;;25.56;50.87;100653.19;5055756;28;1295;-38
2022/08/26 00:40:30;;;;;;;;;;;;;;;25.54;50.62;100658.63;5055591;28;1906;-38
2022/08/26 00:42:57;;;;;;;;;;;;;;;25.57;51.64;100662.00;5055551;28;1732;-38
2022/08/26 00:45:24;;;;;;;;;;;;;;;25.54;51.18;100660.44;5055633;28;1052;-38
2022/08/26 00:47:59;;;;;;;;;;;;;;;25.53;51.38;100656.94;5055518;28;1301;-38
2022/08/26 00:50:32;;;;;;;;;;;;;;;25.52;51.73;100663.25;5054123;28;1488;-39
2022/08/26 00:53:00;;;;;;;;;;;;;;;25.51;51.88;100666.91;5055154;28;1170;-38
2022/08/26 00:55:27;;;;;;;;;;;;;;;25.51;51.80;100663.38;5055174;28;1571;-39
2022/08/26 00:58:04;;;;;;;;;;;;;;;25.48;51.89;100661.81;5055111;28;1282;-36
2022/08/26 01:00:31;;;;;;;;;;;;;;;25.43;51.08;100664.03;5055100;28;1910;-39
2022/08/26 01:02:59;;;;;;;;;;;;;;;25.46;50.99;100657.56;5055326;28;1312;-38
2022/08/26 01:05:27;;;;;;;;;;;;;;;25.46;50.37;100650.44;5055275;28;1024;-38
2022/08/26 01:07:55;;;;;;;;;;;;;;;25.49;50.50;100652.84;5054953;28;1243;-39
2022/08/26 01:10:24;;;;;;;;;;;;;;;25.54;49.95;100655.09;5055054;28;1072;-39
2022/08/26 01:12:54;;;;;;;;;;;;;;;25.50;50.03;100653.72;5054872;28;1245;-38
2022/08/26 01:15:23;;;;;;;;;;;;;;;25.40;49.90;100653.63;5054982;28;1096;-38
2022/08/26 01:17:50;;;;;;;;;;;;;;;25.40;49.52;100653.63;5054799;28;1245;-38
2022/08/26 01:20:36;;;;;;;;;;;;;;;25.33;49.97;100657.78;5054986;28;1910;-38
2022/08/26 01:23:05;;;;;;;;;;;;;;;25.33;49.94;100667.59;5054648;28;1326;-38
2022/08/26 01:25:36;;;;;;;;;;;;;;;25.38;49.27;100668.88;5054944;28;1096;-39
2022/08/26 01:28:06;;;;;;;;;;;;;;;25.37;49.74;100675.22;5054509;28;1385;-39
2022/08/26 01:30:34;;;;;;;;;;;;;;;25.42;50.17;100682.81;5054669;28;1034;-38
2022/08/26 01:33:02;;;;;;;;;;;;;;;25.42;50.79;100688.13;5054143;28;1286;-38
2022/08/26 01:35:29;;;;;;;;;;;;;;;25.44;51.12;100688.88;5054373;28;1248;-37
2022/08/26 01:37:56;;;;;;;;;;;;;;;25.38;51.19;100687.56;5054326;28;1172;-37
2022/08/26 01:40:25;;;;;;;;;;;;;;;25.40;51.87;100696.28;5054556;28;1909;-38
2022/08/26 01:42:52;;;;;;;;;;;;;;;25.31;51.81;100699.75;5052588;28;1228;-37
2022/08/26 01:45:24;;;;;;;;;;;;;;;25.24;52.95;100695.91;5054012;28;1206;-38
2022/08/26 01:47:53;;;;;;;;;;;;;;;25.14;52.94;100694.16;5053997;28;1208;-38
2022/08/26 01:50:33;;;;;;;;;;;;;;;25.12;52.88;100694.25;5054359;28;1024;-37
2022/08/26 01:53:05;;;;;;;;;;;;;;;25.17;53.17;100689.38;5053798;28;1280;-37
2022/08/26 01:55:35;;;;;;;;;;;;;;;25.12;52.98;100696.94;5054235;28;1450;-37
2022/08/26 01:58:04;;;;;;;;;;;;;;;25.08;53.75;100697.34;5053958;28;1212;-38
2022/08/26 02:00:32;;;;;;;;;;;;;;;24.97;53.25;100698.22;5053764;28;1988;-38
2022/08/26 02:03:17;;;;;;;;;;;;;;;24.90;53.65;100699.69;5053840;28;1315;-37
2022/08/26 02:05:45;;;;;;;;;;;;;;;24.90;53.39;100695.22;5053759;28;1090;-38
2022/08/26 02:08:16;;;;;;;;;;;;;;;24.84;53.78;100698.41;5053893;28;1280;-37
2022/08/26 02:10:50;;;;;;;;;;;;;;;24.76;53.99;100692.00;5054319;28;1104;-38
2022/08/26 02:13:20;;;;;;;;;;;;;;;24.76;54.11;100689.31;5054105;28;1243;-37
2022/08/26 02:15:48;;;;;;;;;;;;;;;24.84;54.05;100692.22;5054000;28;1039;-37
2022/08/26 02:18:14;;;;;;;;;;;;;;;24.77;54.41;100689.22;5053880;28;1302;-37
2022/08/26 02:20:41;;;;;;;;;;;;;;;24.77;53.69;100685.69;5053713;28;1910;-37
2022/08/26 02:23:08;;;;;;;;;;;;;;;24.85;53.59;100678.78;5053376;28;1290;-38
2022/08/26 02:25:54;;;;;;;;;;;;;;;24.94;52.93;100677.16;5053725;28;1117;-38
2022/08/26 02:28:20;;;;;;;;;;;;;;;24.90;54.19;100681.03;5053476;28;1303;-39
2022/08/26 02:30:52;;;;;;;;;;;;;;;24.97;52.44;100683.09;5053704;28;1026;-38
2022/08/26 02:33:20;;;;;;;;;;;;;;;25.03;51.40;100679.06;5053431;28;1229;-38
2022/08/26 02:35:47;;;;;;;;;;;;;;;24.98;53.42;100681.28;5053576;28;933;-37
2022/08/26 02:38:14;;;;;;;;;;;;;;;25.08;50.73;100681.34;5053176;28;1310;-37
2022/08/26 02:40:42;;;;;;;;;;;;;;;25.19;49.96;100686.59;5053443;28;1984;-38
2022/08/26 02:43:11;;;;;;;;;;;;;;;25.17;50.13;100686.72;5053280;28;1204;-37
2022/08/26 02:45:39;;;;;;;;;;;;;;;25.20;50.13;100682.97;5052193;28;1095;-37
2022/08/26 02:48:08;;;;;;;;;;;;;;;25.20;50.97;100689.13;5052764;28;1220;-38
2022/08/26 02:50:35;;;;;;;;;;;;;;;25.11;52.37;100681.91;5052677;28;1560;-37
2022/08/26 02:53:03;;;;;;;;;;;;;;;25.05;52.40;100684.28;5053335;28;1704;-38
2022/08/26 02:55:31;;;;;;;;;;;;;;;25.04;52.80;100686.09;5057582;28;1559;-38
2022/08/26 02:57:58;;;;;;;;;;;;;;;25.05;53.29;100684.28;5057409;28;1302;-37
2022/08/26 03:00:26;;;;;;;;;;;;;;;25.10;52.88;100688.22;5056016;28;1120;-37
2022/08/26 03:02:53;;;;;;;;;;;;;;;24.96;53.36;100685.88;5057454;28;1898;-37
2022/08/26 03:05:21;;;;;;;;;;;;;;;24.99;54.21;100677.59;5057404;28;1016;-37
2022/08/26 03:07:49;;;;;;;;;;;;;;;24.99;53.57;100680.28;5057146;28;1275;-37
2022/08/26 03:10:16;;;;;;;;;;;;;;;24.95;53.21;100684.19;5057144;28;1084;-38
2022/08/26 03:12:44;;;;;;;;;;;;;;;24.93;53.97;100678.13;5057312;28;1168;-37
2022/08/26 03:15:15;;;;;;;;;;;;;;;24.98;53.73;100681.28;5057463;28;1033;-37
2022/08/26 03:17:45;;;;;;;;;;;;;;;24.91;53.78;100677.41;5056879;28;1299;-42
2022/08/26 03:20:12;;;;;;;;;;;;;;;24.94;54.62;100682.50;5057309;28;1139;-37
2022/08/26 03:22:40;;;;;;;;;;;;;;;24.97;53.79;100692.88;5056871;28;1977;-38
2022/08/26 03:25:08;;;;;;;;;;;;;;;24.94;53.80;100688.66;5056949;28;1042;-37
2022/08/26 03:27:35;;;;;;;;;;;;;;;24.99;53.01;100693.59;5055586;28;1217;-36
2022/08/26 03:33:02;;;;;;;;;;;;;;;25.02;52.42;100689.84;5031682;28;1158;-37
2022/08/26 03:35:29;;;;;;;;;;;;;;;24.98;52.50;100683.94;5054764;28;1052;-38
2022/08/26 03:37:56;;;;;;;;;;;;;;;24.96;52.50;100691.19;5054627;28;1211;-36
2022/08/26 03:40:23;;;;;;;;;;;;;;;24.98;52.77;100683.94;5055313;28;1112;-37
2022/08/26 03:42:54;;;;;;;;;;;;;;;24.99;52.17;100691.78;5055421;28;1975;-38
2022/08/26 03:45:21;;;;;;;;;;;;;;;25.00;52.04;100692.63;5056773;28;1063;-37
2022/08/26 03:47:47;;;;;;;;;;;;;;;24.94;52.71;100698.47;5056208;28;1223;-37
2022/08/26 03:50:16;;;;;;;;;;;;;;;24.97;52.22;100696.41;5055903;28;1013;-37
2022/08/26 03:52:48;;;;;;;;;;;;;;;24.97;51.30;100706.22;5056368;28;1275;-37
2022/08/26 03:55:16;;;;;;;;;;;;;;;24.95;50.66;100711.69;5056235;28;1603;-38
2022/08/26 03:57:43;;;;;;;;;;;;;;;24.93;50.21;100710.09;5056220;28;1221;-38
2022/08/26 04:00:13;;;;;;;;;;;;;;;24.97;50.79;100714.22;5055969;28;1057;-37
2022/08/26 04:02:44;;;;;;;;;;;;;;;24.97;50.99;100714.22;5056075;28;1915;-38
2022/08/26 04:05:12;;;;;;;;;;;;;;;24.99;50.92;100725.56;5056074;28;1005;-38
2022/08/26 04:07:39;;;;;;;;;;;;;;;24.91;51.43;100731.56;5056030;28;1228;-37
2022/08/26 04:10:07;;;;;;;;;;;;;;;24.98;51.19;100719.44;5056261;28;1609;-38
2022/08/26 04:12:36;;;;;;;;;;;;;;;25.04;50.88;100733.19;5055990;28;1202;-37
2022/08/26 04:15:06;;;;;;;;;;;;;;;25.00;51.44;100730.78;5056015;28;1193;-39
2022/08/26 04:17:33;;;;;;;;;;;;;;;24.97;51.61;100736.38;5060236;28;1449;-37
2022/08/26 04:20:00;;;;;;;;;;;;;;;24.97;51.53;100735.53;5055768;28;1111;-38
2022/08/26 04:22:27;;;;;;;;;;;;;;;24.99;51.43;100736.22;5055617;28;1910;-37
2022/08/26 04:24:54;;;;;;;;;;;;;;;24.94;51.95;100733.97;5055556;28;1092;-38
2022/08/26 04:27:21;;;;;;;;;;;;;;;24.94;52.12;100725.13;5043535;28;847;-37
2022/08/26 04:29:48;;;;;;;;;;;;;;;24.90;52.14;100735.19;5053991;28;1342;-38
2022/08/26 04:32:20;;;;;;;;;;;;;;;24.91;52.14;100728.03;5055586;28;1056;-37
2022/08/26 04:34:46;;;;;;;;;;;;;;;24.88;51.28;100728.31;5055672;28;1264;-38
2022/08/26 04:37:14;;;;;;;;;;;;;;;24.86;50.33;100727.59;5055531;28;1036;-38
2022/08/26 04:39:41;;;;;;;;;;;;;;;24.88;50.22;100730.97;5046313;28;1297;-38
2022/08/26 04:42:09;;;;;;;;;;;;;;;24.82;50.18;100727.00;5035746;28;1910;-38
2022/08/26 04:44:36;;;;;;;;;;;;;;;24.80;50.40;100730.72;5034498;28;1303;-37
2022/08/26 04:47:04;;;;;;;;;;;;;;;24.79;50.61;100732.53;5035382;28;1072;-37
2022/08/26 04:49:31;;;;;;;;;;;;;;;24.79;50.60;100737.03;5035006;28;1305;-38
2022/08/26 04:52:01;;;;;;;;;;;;;;;24.77;50.73;100742.50;5035328;28;1044;-38
2022/08/26 04:54:27;;;;;;;;;;;;;;;24.82;51.11;100742.13;5035049;28;1633;-38
2022/08/26 04:56:54;;;;;;;;;;;;;;;24.80;50.83;100747.56;5033940;28;1068;-38
2022/08/26 04:59:21;;;;;;;;;;;;;;;24.81;51.40;100751.09;5034977;28;1256;-38
2022/08/26 05:01:51;;;;;;;;;;;;;;;24.84;51.42;100756.16;5034953;28;1910;-38
2022/08/26 05:04:18;;;;;;;;;;;;;;;24.87;51.25;100753.25;5033981;28;1221;-40
2022/08/26 05:06:45;;;;;;;;;;;;;;;24.80;51.25;100755.56;5034997;28;1096;-38
2022/08/26 05:09:13;;;;;;;;;;;;;;;24.81;51.33;100751.94;5041383;28;1318;-39
2022/08/26 05:11:40;;;;;;;;;;;;;;;24.88;50.29;100757.59;5054845;28;1052;-38
2022/08/26 05:14:07;;;;;;;;;;;;;;;24.83;50.73;100766.00;5054843;28;1227;-38
2022/08/26 05:16:33;;;;;;;;;;;;;;;24.71;51.05;100751.00;5053903;28;1354;-38
2022/08/26 05:19:02;;;;;;;;;;;;;;;24.71;51.38;100758.97;5054649;28;1280;-37
2022/08/26 05:21:28;;;;;;;;;;;;;;;24.67;51.63;100760.19;5054706;28;1973;-36
2022/08/26 05:23:55;;;;;;;;;;;;;;;24.66;51.80;100762.97;5054583;28;1340;-37
2022/08/26 05:26:23;;;;;;;;;;;;;;;24.71;52.00;100764.31;5054841;28;1276;-37
2022/08/26 05:28:51;;;;;;;;;;;;;;;24.62;51.75;100758.88;5054657;28;1320;-38
2022/08/26 05:31:30;;;;;;;;;;;;;;;24.64;51.74;100764.91;5054734;28;1173;-38
2022/08/26 05:33:57;;;;;;;;;;;;;;;24.69;51.11;100765.38;5054591;28;1318;-37
2022/08/26 05:36:26;;;;;;;;;;;;;;;24.65;51.15;100761.28;5054520;28;1150;-36
2022/08/26 05:38:54;;;;;;;;;;;;;;;24.61;51.22;100762.50;5054493;28;1310;-36
2022/08/26 05:41:23;;;;;;;;;;;;;;;24.62;51.12;100762.38;5054241;28;1973;-37
2022/08/26 05:43:51;;;;;;;;;;;;;;;24.60;50.96;100764.31;5052593;28;1296;-37
2022/08/26 05:46:18;;;;;;;;;;;;;;;24.62;51.31;100767.72;5054567;28;981;-37
2022/08/26 05:48:45;;;;;;;;;;;;;;;24.55;51.76;100763.84;5053941;28;1211;-35
2022/08/26 05:51:13;;;;;;;;;;;;;;;24.46;52.37;100760.13;5052877;28;1254;-36
2022/08/26 05:53:40;;;;;;;;;;;;;;;24.45;52.74;100765.53;5053778;28;1267;-37
2022/08/26 05:56:23;;;;;;;;;;;;;;;24.42;52.51;100755.16;5054189;28;1253;-37
2022/08/26 05:58:50;;;;;;;;;;;;;;;24.44;52.37;100767.34;5053683;28;1278;-36
2022/08/26 06:01:19;;;;;;;;;;;;;;;24.45;51.97;100760.22;5053772;28;1269;-36
2022/08/26 06:03:48;;;;;;;;;;;;;;;24.51;51.69;100765.06;5052767;28;1979;-36
2022/08/26 06:06:34;;;;;;;;;;;;;;;24.55;51.70;100765.66;5054040;28;1175;-37
2022/08/26 06:09:03;;;;;;;;;;;;;;;24.52;51.68;100768.56;5054228;28;1382;-37
2022/08/26 06:11:31;;;;;;;;;;;;;;;24.62;50.80;100766.88;5054484;28;1182;-36
2022/08/26 06:13:59;;;;;;;;;;;;;;;24.65;50.90;100770.13;5054001;28;1281;-36
2022/08/26 06:16:30;;;;;;;;;;;;;;;24.76;50.24;100769.25;5053601;28;1143;-37
2022/08/26 06:18:56;;;;;;;;;;;;;;;24.80;49.96;100771.53;5051459;28;1275;-36
2022/08/26 06:21:25;;;;;;;;;;;;;;;24.84;49.99;100766.81;5053321;28;1272;-37
2022/08/26 06:26:39;;;;;;;;;;;;;;;25.08;49.78;100775.44;5053429;28;1024;-37
2022/08/26 06:29:08;;;;;;;;;;;;;;;25.15;49.98;100773.13;5052379;28;1268;-36
2022/08/26 06:31:35;;;;;;;;;;;;;;;25.16;49.78;100777.50;5052099;28;1072;-37
2022/08/26 06:34:03;;;;;;;;;;;;;;;25.09;50.29;100784.28;5053037;28;1314;-39
2022/08/26 06:36:36;;;;;;;;;;;;;;;25.27;50.61;100785.44;5053631;28;1044;-39
2022/08/26 06:39:05;;;;;;;;;;;;;;;25.24;50.11;100785.69;5052432;28;1227;-36
2022/08/26 06:41:33;;;;;;;;;;;;;;;25.28;50.49;100787.13;5050069;28;1106;-35
2022/08/26 06:44:00;;;;;;;;;;;;;;;25.28;50.60;100784.47;5052478;28;1259;-37
2022/08/26 06:46:28;;;;;;;;;;;;;;;25.47;50.96;100781.94;5053266;28;1174;-37
2022/08/26 06:48:57;;;;;;;;;;;;;;;25.43;49.58;100786.69;5051944;28;1311;-38
2022/08/26 06:51:25;;;;;;;;;;;;;;;25.44;49.78;100788.34;5052532;28;1188;-35
2022/08/26 06:53:53;;;;;;;;;;;;;;;25.42;49.43;100785.00;5052808;28;1632;-37
2022/08/26 06:56:24;;;;;;;;;;;;;;;25.49;49.51;100780.03;5053276;28;1408;-38
2022/08/26 06:58:51;;;;;;;;;;;;;;;25.59;50.29;100777.41;5052836;28;1381;-36
2022/08/26 07:01:23;;;;;;;;;;;;;;;25.53;48.96;100786.78;5051448;28;1193;-39
2022/08/26 07:03:50;;;;;;;;;;;;;;;25.45;49.57;100782.06;5052559;28;1981;-39
2022/08/26 07:06:19;;;;;;;;;;;;;;;25.32;49.90;100786.72;5053419;28;1249;-37
2022/08/26 07:08:47;;;;;;;;;;;;;;;25.38;49.93;100790.72;5052893;28;1291;-37
2022/08/26 07:11:13;;;;;;;;;;;;;;;25.35;49.72;100783.81;5050637;28;1617;-37
2022/08/26 07:13:40;;;;;;;;;;;;;;;25.31;50.13;100787.72;5052101;28;1248;-37
2022/08/26 07:16:13;;;;;;;;;;;;;;;25.40;49.80;100792.28;5052920;28;1084;-37
2022/08/26 07:18:40;;;;;;;;;;;;;;;25.59;49.96;100778.28;5052126;28;1338;-38
2022/08/26 07:21:12;;;;;;;;;;;;;;;25.53;48.88;100787.63;5052421;28;1032;-36
2022/08/26 07:23:40;;;;;;;;;;;;;;;25.53;48.79;100787.63;5051547;28;1989;-36
2022/08/26 07:26:09;;;;;;;;;;;;;;;25.60;49.06;100777.28;5052304;28;1230;-36
2022/08/26 07:28:36;;;;;;;;;;;;;;;25.59;48.91;100772.09;5051411;28;1225;-37
2022/08/26 07:31:04;;;;;;;;;;;;;;;25.63;48.98;100765.50;5052409;28;1131;-37
2022/08/26 07:33:35;;;;;;;;;;;;;;;25.70;48.76;100766.66;5052596;28;1682;-37
2022/08/26 07:36:02;;;;;;;;;;;;;;;25.80;48.37;100764.91;5050900;28;1122;-37
2022/08/26 07:38:29;;;;;;;;;;;;;;;25.79;48.74;100760.53;5052476;28;1298;-37
2022/08/26 07:41:00;;;;;;;;;;;;;;;25.88;48.06;100767.75;5054884;28;1115;-37
2022/08/26 07:43:27;;;;;;;;;;;;;;;25.91;48.19;100760.31;5056233;28;1975;-37
2022/08/26 07:45:54;;;;;;;;;;;;;;;25.94;48.09;100761.88;5055284;28;1335;-37
2022/08/26 07:48:21;;;;;;;;;;;;;;;25.97;48.05;100753.59;5056264;28;1302;-37
2022/08/26 07:50:47;;;;;;;;;;;;;;;26.08;47.61;100748.19;5054431;28;1045;-37
2022/08/26 07:53:16;;;;;;;;;;;;;;;26.09;47.93;100750.72;5055999;28;1201;-37
2022/08/26 07:55:45;;;;;;;;;;;;;;;26.16;47.66;100751.06;5055644;28;1638;-37
2022/08/26 07:58:11;;;;;;;;;;;;;;;26.21;47.48;100750.63;5055699;28;1302;-38
2022/08/26 08:00:38;;;;;;;;;;;;;;;26.23;48.04;100757.56;5055911;28;1060;-38
2022/08/26 08:03:05;;;;;;;;;;;;;;;26.26;47.51;100757.28;5055441;28;1985;-38
2022/08/26 08:05:32;;;;;;;;;;;;;;;26.34;46.95;100762.78;5054429;28;1063;-38
2022/08/26 08:08:00;;;;;;;;;;;;;;;26.32;47.55;100759.41;5055310;28;1276;-38
2022/08/26 08:10:47;;;;;;;;;;;;;;;26.43;47.22;100759.28;5055431;28;2230;-37
2022/08/26 08:13:14;;;;;;;;;;;;;;;26.46;47.93;100760.84;5055022;28;1271;-36
2022/08/26 08:15:41;;;;;;;;;;;;;;;26.44;47.02;100758.31;5055587;28;1129;-35
2022/08/26 08:18:08;;;;;;;;;;;;;;;26.44;47.51;100747.63;5055748;28;1260;-36
2022/08/26 08:20:41;;;;;;;;;;;;;;;26.45;48.72;100753.81;5055409;28;1115;-35
2022/08/26 08:23:24;;;;;;;;;;;;;;;26.52;46.96;100750.47;5050918;28;1909;-35
2022/08/26 08:25:59;;;;;;;;;;;;;;;26.55;47.63;100754.69;5051101;28;1049;-35
2022/08/26 08:28:26;;;;;;;;;;;;;;;26.61;46.31;100756.81;5054929;28;1294;-34
2022/08/26 08:30:52;;;;;;;;;;;;;;;26.57;47.01;100758.91;5055095;28;1023;-35
2022/08/26 08:33:19;;;;;;;;;;;;;;;26.63;46.48;100755.66;5054632;28;1262;-34
2022/08/26 08:35:47;;;;;;;;;;;;;;;26.57;45.91;100761.56;5055059;28;1045;-34
2022/08/26 08:38:14;;;;;;;;;;;;;;;26.71;46.74;100762.16;5054463;28;1307;-35
2022/08/26 08:40:43;;;;;;;;;;;;;;;26.68;46.25;100759.78;5054775;28;1049;-36
2022/08/26 08:43:12;;;;;;;;;;;;;;;26.68;46.48;100755.28;5054327;28;1910;-34
2022/08/26 08:45:43;;;;;;;;;;;;;;;26.73;48.10;100763.72;5055025;28;1046;-34
2022/08/26 08:48:19;;;;;;;;;;;;;;;26.82;49.30;100751.38;5054007;28;1458;-35
2022/08/26 08:50:53;;;;;;;;;;;;;;;26.87;49.21;100759.84;5052488;28;1034;-36
2022/08/26 08:53:23;;;;;;;;;;;;;;;26.85;49.87;100759.97;5053544;28;1252;-36
2022/08/26 08:56:05;;;;;;;;;;;;;;;26.85;49.38;100759.97;5054064;28;2075;-39
2022/08/26 08:58:52;;;;;;;;;;;;;;;26.86;48.35;100753.63;5051906;28;1389;-36
2022/08/26 09:01:38;;;;;;;;;;;;;;;26.98;47.20;100757.03;5054130;28;2334;-37
2022/08/26 09:04:25;;;;;;;;;;;;;;;26.95;47.50;100758.16;5053709;28;1987;-34
2022/08/26 09:06:54;;;;;;;;;;;;;;;26.94;47.52;100758.28;5053795;28;1077;-36
2022/08/26 09:09:39;;;;;;;;;;;;;;;26.98;48.42;100749.00;5057205;28;1283;-37
2022/08/26 09:12:10;;;;;;;;;;;;;;;27.02;49.23;100756.56;5055166;28;1275;-37
2022/08/26 09:14:37;;;;;;;;;;;;;;;27.03;48.81;100746.75;5058452;28;1327;-38
2022/08/26 09:17:04;;;;;;;;;;;;;;;27.06;49.13;100754.47;5054008;28;1037;-37
2022/08/26 09:19:39;;;;;;;;;;;;;;;27.11;48.92;100753.06;5063044;28;1378;-38
2022/08/26 09:22:05;;;;;;;;;;;;;;;27.12;49.13;100748.56;5073391;28;1044;-35
2022/08/26 09:24:36;;;;;;;;;;;;;;;27.14;48.81;100751.97;5068335;28;1910;-38
2022/08/26 09:27:33;;;;;;;;;;;;;;;27.18;46.87;100750.66;5073039;28;1025;-37
2022/08/26 09:30:03;;;;;;;;;;;;;;;27.22;48.96;100753.91;5069215;28;1115;-39
2022/08/26 09:32:30;;;;;;;;;;;;;;;27.28;47.71;100748.84;5072793;28;1264;-39
2022/08/26 09:34:59;;;;;;;;;;;;;;;27.24;48.20;100746.63;5070139;28;1278;-40
2022/08/26 09:37:40;;;;;;;;;;;;;;;27.32;47.60;100749.41;5072858;28;1255;-39
2022/08/26 09:40:16;;;;;;;;;;;;;;;27.33;45.00;100751.91;5066506;28;1111;-39
2022/08/26 09:42:43;;;;;;;;;;;;;;;27.50;45.99;100747.72;5053111;28;1914;-38
2022/08/26 09:45:11;;;;;;;;;;;;;;;27.57;46.87;100748.84;5051115;28;1394;-37
2022/08/26 09:47:51;;;;;;;;;;;;;;;27.50;48.29;100745.91;5049177;28;1238;-38
2022/08/26 09:50:27;;;;;;;;;;;;;;;27.59;43.22;100742.34;5051332;28;1027;-39
2022/08/26 09:53:13;;;;;;;;;;;;;;;27.84;46.00;100745.38;5051593;28;1269;-40
2022/08/26 09:55:41;;;;;;;;;;;;;;;28.05;43.75;100740.69;5068971;28;1323;-39
2022/08/26 09:58:12;;;;;;;;;;;;;;;27.75;44.39;100743.56;5050581;28;1276;-37
2022/08/26 10:00:51;;;;;;;;;;;;;;;27.59;46.81;100742.34;5064658;28;1198;-36
2022/08/26 10:03:26;;;;;;;;;;;;;;;27.67;44.72;100745.13;5051021;28;1969;-37
2022/08/26 10:05:57;;;;;;;;;;;;;;;27.95;44.09;100742.50;5054637;28;1191;-38
2022/08/26 10:08:36;;;;;;;;;;;;;;;27.72;47.00;100743.88;5052352;28;1325;-36
2022/08/26 10:11:10;;;;;;;;;;;;;;;27.74;46.75;100744.56;5050670;28;1069;-39
2022/08/26 10:13:41;;;;;;;;;;;;;;;27.64;47.17;100734.72;5050683;28;1342;-36
2022/08/26 10:16:16;;;;;;;;;;;;;;;28.01;42.83;100731.22;5049488;28;1045;-37
2022/08/26 10:18:59;;;;;;;;;;;;;;;27.74;46.52;100731.19;5052044;28;1293;-37
2022/08/26 10:21:31;;;;;;;;;;;;;;;27.78;46.35;100740.59;5053439;28;1295;-38
2022/08/26 10:24:00;;;;;;;;;;;;;;;27.67;47.10;100736.25;5052752;28;1979;-38
2022/08/26 10:26:47;;;;;;;;;;;;;;;27.87;46.50;100739.72;5056459;28;1346;-42
2022/08/26 10:29:22;;;;;;;;;;;;;;;27.81;46.98;100734.97;5069825;28;1244;-36
2022/08/26 10:31:59;;;;;;;;;;;;;;;27.70;47.28;100733.28;5071735;28;1005;-36
2022/08/26 10:34:30;;;;;;;;;;;;;;;27.67;47.14;100734.44;5071055;28;1375;-34
2022/08/26 10:37:00;;;;;;;;;;;;;;;27.77;47.13;100734.41;5070204;28;887;-38
2022/08/26 10:39:50;;;;;;;;;;;;;;;28.04;44.24;100728.25;5068737;28;1401;-37
2022/08/26 10:42:43;;;;;;;;;;;;;;;27.90;45.02;100731.41;5056521;28;1413;-37
2022/08/26 10:45:13;;;;;;;;;;;;;;;27.89;46.41;100727.03;5045965;28;1370;-39
2022/08/26 10:47:40;;;;;;;;;;;;;;;28.30;43.16;100728.44;5052739;28;1377;-39
2022/08/26 10:50:07;;;;;;;;;;;;;;;27.96;45.76;100731.66;5054800;28;1620;-38
2022/08/26 10:52:41;;;;;;;;;;;;;;;27.96;46.44;100725.47;5064271;28;1312;-38
2022/08/26 10:55:16;;;;;;;;;;;;;;;27.99;46.65;100719.81;5047332;28;1430;-35
2022/08/26 10:57:56;;;;;;;;;;;;;;;27.95;46.47;100716.59;5053415;28;1415;-35
2022/08/26 11:03:21;;;;;;;;;;;;;;;28.07;47.24;100722.63;5048063;28;1906;-37
2022/08/26 11:06:23;;;;;;;;;;;;;;;28.80;42.77;100720.78;5064184;28;1093;-36
2022/08/26 11:08:51;;;;;;;;;;;;;;;28.34;45.51;100725.28;5036252;28;1288;-40
2022/08/26 11:11:37;;;;;;;;;;;;;;;28.46;46.58;100721.41;5042541;28;1367;-36
2022/08/26 11:14:06;;;;;;;;;;;;;;;28.59;44.71;100711.19;5050944;28;1288;-36
2022/08/26 11:16:40;;;;;;;;;;;;;;;28.43;46.62;100719.03;5054723;28;1071;-35
2022/08/26 11:19:11;;;;;;;;;;;;;;;28.84;43.96;100711.44;5056051;28;1267;-36
2022/08/26 11:21:43;;;;;;;;;;;;;;;28.60;46.23;100718.22;5064246;28;1053;-36
2022/08/26 11:24:30;;;;;;;;;;;;;;;28.51;47.00;100704.91;5054702;28;1978;-36
2022/08/26 11:26:57;;;;;;;;;;;;;;;28.46;47.07;100702.66;5067140;28;1702;-36
2022/08/26 11:29:50;;;;;;;;;;;;;;;28.46;47.22;100696.44;5052775;28;1361;-37
2022/08/26 11:32:33;;;;;;;;;;;;;;;28.71;46.75;100695.75;5043783;28;1250;-35
2022/08/26 11:35:03;;;;;;;;;;;;;;;28.68;46.62;100691.53;5042639;28;1450;-37
2022/08/26 11:37:34;;;;;;;;;;;;;;;28.60;46.98;100694.13;5050769;28;1424;-37
2022/08/26 11:40:07;;;;;;;;;;;;;;;28.60;47.07;100685.22;5046563;28;1528;-37
2022/08/26 11:42:47;;;;;;;;;;;;;;;28.86;45.94;100690.69;5053136;28;1422;-37
2022/08/26 11:45:14;;;;;;;;;;;;;;;28.81;45.95;100690.31;5054742;28;1969;-39
2022/08/26 11:47:41;;;;;;;;;;;;;;;28.67;46.83;100687.16;5067257;28;1406;-36
2022/08/26 11:50:22;;;;;;;;;;;;;;;28.88;46.00;100686.03;5066653;28;1131;-37
2022/08/26 11:52:50;;;;;;;;;;;;;;;28.70;46.68;100691.38;5048628;28;1285;-35
2022/08/26 11:55:20;;;;;;;;;;;;;;;28.75;46.45;100691.78;5058595;28;1489;-38
2022/08/26 11:57:51;;;;;;;;;;;;;;;28.90;45.57;100689.38;5051616;28;1359;-37
2022/08/26 12:00:23;;;;;;;;;;;;;;;28.92;45.36;100687.38;5045783;28;1054;-37
2022/08/26 12:02:50;;;;;;;;;;;;;;;28.68;46.47;100675.47;5053072;28;1382;-37
2022/08/26 12:05:35;;;;;;;;;;;;;;;28.81;45.85;100687.63;5060884;28;1910;-40
2022/08/26 12:08:07;;;;;;;;;;;;;;;29.27;43.07;100679.31;5063037;28;1383;-37
2022/08/26 12:10:40;;;;;;;;;;;;;;;29.17;44.51;100670.50;5052622;28;1128;-37
2022/08/26 12:13:16;;;;;;;;;;;;;;;28.93;45.43;100670.31;5045129;28;1414;-39
2022/08/26 12:15:57;;;;;;;;;;;;;;;28.78;45.79;100667.34;5044983;28;1155;-37
2022/08/26 12:18:34;;;;;;;;;;;;;;;28.79;45.81;100658.28;5047099;28;1276;-38
2022/08/26 12:21:11;;;;;;;;;;;;;;;28.88;45.80;100653.84;5063708;28;1166;-38
2022/08/26 12:23:41;;;;;;;;;;;;;;;29.03;45.19;100649.63;5049875;28;1980;-38
2022/08/26 12:26:21;;;;;;;;;;;;;;;28.87;45.99;100647.66;5062026;28;1063;-38
2022/08/26 12:28:51;;;;;;;;;;;;;;;28.94;46.08;100648.69;5051848;28;1320;-36
2022/08/26 12:31:35;;;;;;;;;;;;;;;29.32;44.31;100639.44;5060446;28;1060;-42
2022/08/26 12:34:04;;;;;;;;;;;;;;;29.08;45.40;100650.81;5054545;28;1248;-37
2022/08/26 12:36:35;;;;;;;;;;;;;;;29.07;44.70;100646.44;5057944;28;1031;-37
2022/08/26 12:39:27;;;;;;;;;;;;;;;29.04;45.37;100638.72;5047459;28;1292;-37
2022/08/26 12:41:55;;;;;;;;;;;;;;;29.17;45.03;100630.25;5054148;28;1688;-36
2022/08/26 12:44:32;;;;;;;;;;;;;;;29.39;44.63;100627.09;5051667;28;1930;-38
2022/08/26 12:47:04;;;;;;;;;;;;;;;28.94;46.31;100618.38;5040243;28;1289;-38
2022/08/26 12:49:31;;;;;;;;;;;;;;;28.87;46.45;100620.00;5053514;28;1225;-37
2022/08/26 12:51:57;;;;;;;;;;;;;;;29.02;46.33;100618.44;5066042;28;1059;-38
2022/08/26 12:54:57;;;;;;;;;;;;;;;28.97;46.46;100616.19;5061353;28;1432;-37
2022/08/26 12:57:11;;;;;;;;;;;;;;;29.09;46.28;100614.13;5065769;28;1092;-38
2022/08/26 12:59:38;;;;;;;;;;;;;;;29.19;46.53;100604.13;5061750;28;1221;-37
2022/08/26 13:02:04;;;;;;;;;;;;;;;29.18;46.66;100605.13;5065740;28;1048;-37
2022/08/26 13:04:39;;;;;;;;;;;;;;;29.09;47.29;100611.44;5062647;28;1922;-38
2022/08/26 13:07:20;;;;;;;;;;;;;;;29.11;46.95;100609.44;5065086;28;813;-36
2022/08/26 13:09:57;;;;;;;;;;;;;;;29.03;47.43;100604.03;5056412;28;1100;-37
2022/08/26 13:12:24;;;;;;;;;;;;;;;29.14;47.79;100603.75;5045936;28;1008;-40
2022/08/26 13:14:50;;;;;;;;;;;;;;;29.45;47.38;100599.63;5058981;28;1343;-38